createdAt,value
2023-05-09T00:00:38.977Z,4346.00
2023-05-09T00:01:38.990Z,4433.00
2023-05-09T00:02:38.992Z,4410.00
2023-05-09T00:03:38.971Z,4416.00
2023-05-09T00:04:39.014Z,4446.00
2023-05-09T00:05:39.018Z,4346.00
2023-05-09T00:06:38.955Z,4269.00
2023-05-09T00:07:38.940Z,4174.00
2023-05-09T00:08:38.936Z,4172.00
2023-05-09T00:09:38.924Z,4214.00
2023-05-09T00:10:38.914Z,4128.00
2023-05-09T00:11:38.976Z,4211.00
2023-05-09T00:12:38.923Z,4226.00
2023-05-09T00:13:38.897Z,4237.00
2023-05-09T00:14:38.880Z,4198.00
2023-05-09T00:15:38.858Z,4223.00
2023-05-09T00:16:38.967Z,4188.00
2023-05-09T00:17:38.929Z,4225.00
2023-05-09T00:18:38.874Z,4216.00
2023-05-09T00:19:38.887Z,4181.00
2023-05-09T00:20:38.835Z,4181.00
2023-05-09T00:21:38.832Z,4175.00
2023-05-09T00:22:38.808Z,4247.00
2023-05-09T00:23:38.876Z,4290.00
2023-05-09T00:24:38.821Z,4304.00
2023-05-09T00:25:38.827Z,4317.00
2023-05-09T00:26:38.798Z,4330.00
2023-05-09T00:27:38.871Z,4310.00
2023-05-09T00:28:38.771Z,4420.00
2023-05-09T00:29:38.796Z,4450.00
2023-05-09T00:30:38.798Z,4465.00
2023-05-09T00:31:38.786Z,4451.00
2023-05-09T00:32:38.809Z,4454.00
2023-05-09T00:33:38.749Z,4520.00
2023-05-09T00:34:38.737Z,4482.00
2023-05-09T00:35:38.749Z,4443.00
2023-05-09T00:36:38.800Z,4478.00
2023-05-09T00:37:38.870Z,4513.00
2023-05-09T00:38:38.908Z,4520.00
2023-05-09T00:39:38.952Z,4543.00
2023-05-09T00:40:39.041Z,4563.00
2023-05-09T00:41:39.022Z,4602.00
2023-05-09T00:42:39.072Z,4608.00
2023-05-09T00:43:39.174Z,4543.00
2023-05-09T00:44:39.151Z,4403.00
2023-05-09T00:45:39.146Z,4302.00
2023-05-09T00:46:39.176Z,4251.00
2023-05-09T00:47:39.273Z,4252.00
2023-05-09T00:48:39.218Z,4227.00
2023-05-09T00:49:39.215Z,4284.00
2023-05-09T00:50:39.226Z,4323.00
2023-05-09T00:51:39.286Z,4382.00
2023-05-09T00:52:39.354Z,4337.00
2023-05-09T00:53:39.346Z,4306.00
2023-05-09T00:54:39.460Z,4274.00
2023-05-09T00:55:39.465Z,4202.00
2023-05-09T00:56:39.530Z,4103.00
2023-05-09T00:57:39.595Z,4048.00
2023-05-09T00:58:39.663Z,4126.00
2023-05-09T00:59:39.750Z,4220.00
2023-05-09T01:00:39.709Z,4238.00
2023-05-09T01:01:39.794Z,4246.00
2023-05-09T01:02:39.822Z,4220.00
2023-05-09T01:03:40.002Z,4240.00
2023-05-09T01:04:39.896Z,4192.00
2023-05-09T01:05:39.919Z,4084.00
2023-05-09T01:06:39.952Z,4027.00
2023-05-09T01:07:39.983Z,4092.00
2023-05-09T01:08:39.989Z,4189.00
2023-05-09T01:09:40.032Z,4200.00
2023-05-09T01:10:40.071Z,4163.00
2023-05-09T01:11:40.089Z,3957.00
2023-05-09T01:12:40.105Z,3658.00
2023-05-09T01:13:40.097Z,3527.00
2023-05-09T01:14:40.130Z,3510.00
2023-05-09T01:15:40.276Z,3640.00
2023-05-09T01:16:40.138Z,3610.00
2023-05-09T01:17:40.230Z,3670.00
2023-05-09T01:18:40.177Z,3789.00
2023-05-09T01:19:40.239Z,3857.00
2023-05-09T01:20:40.223Z,3923.00
2023-05-09T01:21:40.237Z,3946.00
2023-05-09T01:22:40.277Z,3847.00
2023-05-09T01:23:40.313Z,3816.00
2023-05-09T01:24:40.319Z,3884.00
2023-05-09T01:25:40.378Z,3878.00
2023-05-09T01:26:40.414Z,3935.00
2023-05-09T01:27:40.484Z,3991.00
2023-05-09T01:28:40.502Z,3985.00
2023-05-09T01:29:40.518Z,4004.00
2023-05-09T01:30:40.533Z,4074.00
2023-05-09T01:31:40.673Z,4075.00
2023-05-09T01:32:40.644Z,3908.00
2023-05-09T01:33:40.629Z,3757.00
2023-05-09T01:34:40.642Z,3592.00
2023-05-09T01:35:40.655Z,3494.00
2023-05-09T01:36:40.702Z,3490.00
2023-05-09T01:37:40.719Z,3587.00
2023-05-09T01:38:40.758Z,3438.00
2023-05-09T01:39:40.826Z,3481.00
2023-05-09T01:40:40.838Z,3555.00
2023-05-09T01:41:40.891Z,3565.00
2023-05-09T01:42:40.877Z,3535.00
2023-05-09T01:43:41.000Z,3623.00
2023-05-09T01:44:40.956Z,3634.00
2023-05-09T01:45:40.978Z,3570.00
2023-05-09T01:46:41.086Z,3619.00
2023-05-09T01:47:41.135Z,3686.00
2023-05-09T01:48:41.117Z,3733.00
2023-05-09T01:49:41.165Z,3797.00
2023-05-09T01:50:41.218Z,3933.00
2023-05-09T01:51:43.647Z,4002.00
2023-05-09T01:52:41.283Z,4098.00
2023-05-09T01:53:41.225Z,4151.00
2023-05-09T01:54:41.226Z,4199.00
2023-05-09T01:55:41.240Z,4175.00
2023-05-09T01:56:41.207Z,4212.00
2023-05-09T01:57:41.223Z,4237.00
2023-05-09T01:58:41.191Z,4265.00
2023-05-09T01:59:41.197Z,4336.00
2023-05-09T02:00:41.249Z,4367.00
2023-05-09T02:01:41.197Z,4331.00
2023-05-09T02:02:41.268Z,4352.00
2023-05-09T02:03:41.265Z,4194.00
2023-05-09T02:04:41.143Z,4150.00
2023-05-09T02:05:41.205Z,4116.00
2023-05-09T02:06:41.149Z,4060.00
2023-05-09T02:07:41.136Z,4044.00
2023-05-09T02:08:41.148Z,3973.00
2023-05-09T02:09:41.163Z,3974.00
2023-05-09T02:10:41.157Z,3954.00
2023-05-09T02:11:41.127Z,3936.00
2023-05-09T02:12:41.176Z,3941.00
2023-05-09T02:13:41.126Z,3922.00
2023-05-09T02:14:41.083Z,3842.00
2023-05-09T02:15:41.089Z,3815.00
2023-05-09T02:16:41.138Z,3864.00
2023-05-09T02:17:41.096Z,3918.00
2023-05-09T02:18:41.078Z,4025.00
2023-05-09T02:19:41.148Z,4032.00
2023-05-09T02:20:41.077Z,3988.00
2023-05-09T02:21:41.094Z,4013.00
2023-05-09T02:22:41.093Z,4090.00
2023-05-09T02:23:41.041Z,4196.00
2023-05-09T02:24:41.135Z,4246.00
2023-05-09T02:25:41.050Z,4218.00
2023-05-09T02:26:41.028Z,4281.00
2023-05-09T02:27:41.031Z,4290.00
2023-05-09T02:28:40.982Z,4200.00
2023-05-09T02:29:40.997Z,4082.00
2023-05-09T02:30:41.017Z,4094.00
2023-05-09T02:31:41.015Z,4092.00
2023-05-09T02:32:41.040Z,4108.00
2023-05-09T02:33:40.958Z,4098.00
2023-05-09T02:34:40.983Z,4107.00
2023-05-09T02:35:41.020Z,4134.00
2023-05-09T02:36:40.936Z,4149.00
2023-05-09T02:37:40.944Z,4141.00
2023-05-09T02:38:40.923Z,4074.00
2023-05-09T02:39:40.978Z,4090.00
2023-05-09T02:40:40.948Z,4144.00
2023-05-09T02:41:40.911Z,4138.00
2023-05-09T02:42:40.916Z,4196.00
2023-05-09T02:43:40.929Z,4254.00
2023-05-09T02:44:40.933Z,4280.00
2023-05-09T02:45:40.975Z,4273.00
2023-05-09T02:46:40.864Z,4256.00
2023-05-09T02:47:40.932Z,4207.00
2023-05-09T02:48:40.903Z,4202.00
2023-05-09T02:49:40.905Z,4189.00
2023-05-09T02:50:40.940Z,4231.00
2023-05-09T02:51:40.926Z,4303.00
2023-05-09T02:52:40.843Z,4359.00
2023-05-09T02:53:40.846Z,4407.00
2023-05-09T02:54:40.853Z,4456.00
2023-05-09T02:55:40.851Z,4332.00
2023-05-09T02:56:40.920Z,4350.00
2023-05-09T02:57:40.805Z,4370.00
2023-05-09T02:58:40.820Z,4425.00
2023-05-09T02:59:40.822Z,4410.00
2023-05-09T03:00:40.830Z,4419.00
2023-05-09T03:01:40.822Z,4425.00
2023-05-09T03:02:40.835Z,4449.00
2023-05-09T03:03:40.908Z,4419.00
2023-05-09T03:04:40.770Z,4449.00
2023-05-09T03:05:40.748Z,4437.00
2023-05-09T03:06:40.750Z,4426.00
2023-05-09T03:07:40.833Z,4417.00
2023-05-09T03:08:40.753Z,4375.00
2023-05-09T03:09:41.304Z,4390.00
2023-05-09T03:10:40.738Z,4401.00
2023-05-09T03:11:40.724Z,4400.00
2023-05-09T03:12:40.771Z,4427.00
2023-05-09T03:13:40.736Z,4383.00
2023-05-09T03:14:40.768Z,4300.00
2023-05-09T03:15:40.731Z,4320.00
2023-05-09T03:16:40.712Z,4326.00
2023-05-09T03:17:40.731Z,4400.00
2023-05-09T03:18:40.690Z,4433.00
2023-05-09T03:19:40.688Z,4489.00
2023-05-09T03:20:40.691Z,4505.00
2023-05-09T03:21:40.708Z,4399.00
2023-05-09T03:22:40.732Z,4343.00
2023-05-09T03:23:40.824Z,4304.00
2023-05-09T03:24:40.778Z,4245.00
2023-05-09T03:25:40.831Z,4171.00
2023-05-09T03:26:40.822Z,4072.00
2023-05-09T03:27:40.852Z,4053.00
2023-05-09T03:28:40.856Z,4023.00
2023-05-09T03:29:40.911Z,3994.00
2023-05-09T03:30:40.928Z,4006.00
2023-05-09T03:31:40.955Z,3976.00
2023-05-09T03:32:40.998Z,3959.00
2023-05-09T03:33:40.985Z,3906.00
2023-05-09T03:34:41.014Z,3835.00
2023-05-09T03:35:41.043Z,3790.00
2023-05-09T03:36:41.045Z,3784.00
2023-05-09T03:37:41.105Z,3780.00
2023-05-09T03:38:41.176Z,3844.00
2023-05-09T03:39:41.299Z,3908.00
2023-05-09T03:40:41.248Z,3868.00
2023-05-09T03:41:41.307Z,3876.00
2023-05-09T03:42:41.345Z,3948.00
2023-05-09T03:43:41.414Z,4068.00
2023-05-09T03:44:41.404Z,4128.00
2023-05-09T03:45:41.470Z,4096.00
2023-05-09T03:46:41.458Z,4118.00
2023-05-09T03:47:41.596Z,4259.00
2023-05-09T03:48:41.540Z,4308.00
2023-05-09T03:49:41.600Z,4395.00
2023-05-09T03:50:41.607Z,4429.00
2023-05-09T03:51:42.213Z,4440.00
2023-05-09T03:52:41.661Z,4403.00
2023-05-09T03:53:41.688Z,4409.00
2023-05-09T03:54:41.722Z,4357.00
2023-05-09T03:55:41.803Z,4319.00
2023-05-09T03:56:41.748Z,4292.00
2023-05-09T03:57:41.752Z,4375.00
2023-05-09T03:58:41.796Z,4445.00
2023-05-09T03:59:41.825Z,4457.00
2023-05-09T04:00:41.852Z,4480.00
2023-05-09T04:01:41.867Z,4534.00
2023-05-09T04:02:41.976Z,4553.00
2023-05-09T04:03:42.035Z,4585.00
2023-05-09T04:04:41.955Z,4558.00
2023-05-09T04:05:41.979Z,4396.00
2023-05-09T04:06:41.992Z,4219.00
2023-05-09T04:07:42.061Z,4119.00
2023-05-09T04:08:42.106Z,4183.00
2023-05-09T04:09:42.089Z,4249.00
2023-05-09T04:10:42.122Z,4209.00
2023-05-09T04:11:42.257Z,4232.00
2023-05-09T04:12:42.232Z,4234.00
2023-05-09T04:13:42.225Z,4291.00
2023-05-09T04:14:42.268Z,4559.00
2023-05-09T04:15:42.296Z,4390.00
2023-05-09T04:16:42.403Z,4422.00
2023-05-09T04:17:42.394Z,4574.00
2023-05-09T04:18:42.411Z,4750.00
2023-05-09T04:19:42.457Z,4780.00
2023-05-09T04:20:42.513Z,4755.00
2023-05-09T04:21:42.583Z,4804.00
2023-05-09T04:22:43.115Z,4795.00
2023-05-09T04:23:42.621Z,4843.00
2023-05-09T04:24:42.652Z,4910.00
2023-05-09T04:25:42.663Z,4979.00
2023-05-09T04:26:42.708Z,5008.00
2023-05-09T04:27:42.810Z,4992.00
2023-05-09T04:28:42.761Z,4971.00
2023-05-09T04:29:42.762Z,4965.00
2023-05-09T04:30:42.851Z,4985.00
2023-05-09T04:31:42.932Z,4968.00
2023-05-09T04:32:42.880Z,4960.00
2023-05-09T04:33:42.889Z,4916.00
2023-05-09T04:34:42.911Z,4807.00
2023-05-09T04:35:42.938Z,4852.00
2023-05-09T04:36:42.928Z,4968.00
2023-05-09T04:37:43.006Z,4964.00
2023-05-09T04:38:43.017Z,4995.00
2023-05-09T04:39:43.089Z,4993.00
2023-05-09T04:40:43.161Z,5015.00
2023-05-09T04:41:43.157Z,5069.00
2023-05-09T04:42:43.147Z,4987.00
2023-05-09T04:43:43.261Z,4973.00
2023-05-09T04:44:43.243Z,5051.00
2023-05-09T04:45:43.193Z,5015.00
2023-05-09T04:46:43.250Z,4969.00
2023-05-09T04:47:43.278Z,5039.00
2023-05-09T04:48:43.306Z,4950.00
2023-05-09T04:49:43.307Z,4916.00
2023-05-09T04:50:43.401Z,4955.00
2023-05-09T04:51:43.424Z,5072.00
2023-05-09T04:52:43.454Z,5032.00
2023-05-09T04:53:43.486Z,4993.00
2023-05-09T04:54:43.554Z,4999.00
2023-05-09T04:55:43.609Z,5032.00
2023-05-09T04:56:43.613Z,5016.00
2023-05-09T04:57:43.609Z,5040.00
2023-05-09T04:58:43.615Z,5062.00
2023-05-09T04:59:43.619Z,4977.00
2023-05-09T05:00:43.677Z,4994.00
2023-05-09T05:01:43.810Z,4985.00
2023-05-09T05:02:43.802Z,5000.00
2023-05-09T05:03:43.801Z,4966.00
2023-05-09T05:04:43.852Z,4956.00
2023-05-09T05:05:43.989Z,4967.00
2023-05-09T05:06:43.939Z,4945.00
2023-05-09T05:07:43.995Z,4854.00
2023-05-09T05:08:44.050Z,4844.00
2023-05-09T05:09:44.107Z,4811.00
2023-05-09T05:10:44.096Z,4843.00
2023-05-09T05:11:53.157Z,4734.00
2023-05-09T05:12:45.218Z,4735.00
2023-05-09T05:13:44.165Z,4748.00
2023-05-09T05:14:44.141Z,4793.00
2023-05-09T05:15:44.195Z,4873.00
2023-05-09T05:16:44.152Z,4992.00
2023-05-09T05:17:44.151Z,4984.00
2023-05-09T05:18:44.126Z,5022.00
2023-05-09T05:19:44.079Z,4949.00
2023-05-09T05:20:44.075Z,4935.00
2023-05-09T05:21:44.081Z,4975.00
2023-05-09T05:22:44.085Z,5002.00
2023-05-09T05:23:44.096Z,4984.00
2023-05-09T05:24:44.074Z,4947.00
2023-05-09T05:25:44.104Z,4898.00
2023-05-09T05:26:44.060Z,4719.00
2023-05-09T05:27:44.060Z,4685.00
2023-05-09T05:28:44.082Z,4755.00
2023-05-09T05:29:44.032Z,4746.00
2023-05-09T05:30:44.030Z,4687.00
2023-05-09T05:31:44.156Z,4615.00
2023-05-09T05:32:44.077Z,4554.00
2023-05-09T05:33:44.097Z,4529.00
2023-05-09T05:34:44.168Z,4511.00
2023-05-09T05:35:44.162Z,4441.00
2023-05-09T05:36:44.170Z,4364.00
2023-05-09T05:37:44.215Z,4273.00
2023-05-09T05:38:44.243Z,4218.00
2023-05-09T05:39:44.332Z,4202.00
2023-05-09T05:40:44.399Z,4262.00
2023-05-09T05:41:44.405Z,4358.00
2023-05-09T05:42:44.552Z,4392.00
2023-05-09T05:43:44.519Z,4303.00
2023-05-09T05:44:44.524Z,4285.00
2023-05-09T05:45:44.564Z,4281.00
2023-05-09T05:46:44.564Z,4388.00
2023-05-09T05:47:44.729Z,4413.00
2023-05-09T05:48:44.671Z,4418.00
2023-05-09T05:49:44.729Z,4422.00
2023-05-09T05:50:44.635Z,4365.00
2023-05-09T05:51:44.639Z,4243.00
2023-05-09T05:52:44.687Z,4183.00
2023-05-09T05:53:44.722Z,4001.00
2023-05-09T05:54:44.753Z,3788.00
2023-05-09T05:55:44.798Z,3576.00
2023-05-09T05:56:44.864Z,3538.00
2023-05-09T05:57:44.859Z,3585.00
2023-05-09T05:58:44.880Z,3654.00
2023-05-09T05:59:44.976Z,3484.00
2023-05-09T06:00:44.989Z,3425.00
2023-05-09T06:01:44.998Z,3583.00
2023-05-09T06:02:45.081Z,3673.00
2023-05-09T06:03:45.213Z,3740.00
2023-05-09T06:04:45.022Z,3769.00
2023-05-09T06:05:45.033Z,3720.00
2023-05-09T06:06:45.071Z,3583.00
2023-05-09T06:07:45.113Z,3381.00
2023-05-09T06:08:45.141Z,3336.00
2023-05-09T06:09:45.206Z,3367.00
2023-05-09T06:10:45.242Z,3568.00
2023-05-09T06:11:45.315Z,3621.00
2023-05-09T06:12:45.399Z,3777.00
2023-05-09T06:13:45.368Z,3730.00
2023-05-09T06:14:45.382Z,3595.00
2023-05-09T06:15:45.448Z,3449.00
2023-05-09T06:16:45.476Z,3338.00
2023-05-09T06:17:45.567Z,3327.00
2023-05-09T06:18:45.549Z,3349.00
2023-05-09T06:19:45.687Z,3512.00
2023-05-09T06:20:45.676Z,3617.00
2023-05-09T06:21:45.668Z,3634.00
2023-05-09T06:22:45.711Z,3708.00
2023-05-09T06:24:45.736Z,3514.00
2023-05-09T06:25:45.762Z,3416.00
2023-05-09T06:26:45.708Z,3462.00
2023-05-09T06:27:45.732Z,3410.00
2023-05-09T06:28:45.682Z,3368.00
2023-05-09T06:29:45.739Z,3633.00
2023-05-09T06:30:45.698Z,3638.00
2023-05-09T06:31:45.702Z,3651.00
2023-05-09T06:32:45.694Z,3798.00
2023-05-09T06:33:45.665Z,3908.00
2023-05-09T06:34:45.656Z,3862.00
2023-05-09T06:35:46.068Z,3892.00
2023-05-09T06:36:45.644Z,3775.00
2023-05-09T06:37:48.263Z,3509.00
2023-05-09T06:38:45.624Z,3515.00
2023-05-09T06:39:45.620Z,3571.00
2023-05-09T06:40:45.619Z,3619.00
2023-05-09T06:41:45.631Z,3595.00
2023-05-09T06:42:45.637Z,3588.00
2023-05-09T06:43:45.624Z,3562.00
2023-05-09T06:44:45.586Z,3622.00
2023-05-09T06:45:45.594Z,3744.00
2023-05-09T06:46:45.749Z,3794.00
2023-05-09T06:47:45.620Z,3812.00
2023-05-09T06:48:45.580Z,3789.00
2023-05-09T06:49:45.549Z,3794.00
2023-05-09T06:50:45.557Z,3807.00
2023-05-09T06:51:45.662Z,3773.00
2023-05-09T06:52:45.518Z,3712.00
2023-05-09T06:53:45.502Z,3747.00
2023-05-09T06:54:45.520Z,3954.00
2023-05-09T06:55:45.518Z,3974.00
2023-05-09T06:56:45.539Z,3984.00
2023-05-09T06:57:46.016Z,3938.00
2023-05-09T06:58:45.961Z,3913.00
2023-05-09T06:59:45.972Z,3832.00
2023-05-09T07:00:45.516Z,3875.00
2023-05-09T07:01:45.535Z,4015.00
2023-05-09T07:02:45.552Z,4134.00
2023-05-09T07:03:45.975Z,4095.00
2023-05-09T07:04:45.521Z,4058.00
2023-05-09T07:05:45.468Z,4191.00
2023-05-09T07:06:45.465Z,4177.00
2023-05-09T07:07:45.582Z,4144.00
2023-05-09T07:08:45.431Z,4191.00
2023-05-09T07:09:45.435Z,4127.00
2023-05-09T07:10:45.444Z,4251.00
2023-05-09T07:11:45.427Z,4312.00
2023-05-09T07:12:45.430Z,4274.00
2023-05-09T07:13:45.401Z,4323.00
2023-05-09T07:14:45.418Z,4352.00
2023-05-09T07:15:45.606Z,4357.00
2023-05-09T07:16:45.471Z,4317.00
2023-05-09T07:17:45.406Z,4360.00
2023-05-09T07:18:45.391Z,4343.00
2023-05-09T07:19:45.364Z,4331.00
2023-05-09T07:20:45.382Z,4358.00
2023-05-09T07:21:45.346Z,4443.00
2023-05-09T07:22:45.356Z,4488.00
2023-05-09T07:23:45.426Z,4602.00
2023-05-09T07:24:45.341Z,4587.00
2023-05-09T07:25:45.507Z,4447.00
2023-05-09T07:26:45.489Z,4424.00
2023-05-09T07:27:45.332Z,4570.00
2023-05-09T07:28:45.289Z,4648.00
2023-05-09T07:29:45.294Z,4335.00
2023-05-09T07:30:45.519Z,4186.00
2023-05-09T07:31:45.346Z,4086.00
2023-05-09T07:32:45.328Z,3978.00
2023-05-09T07:33:45.295Z,3852.00
2023-05-09T07:34:45.271Z,3744.00
2023-05-09T07:35:45.490Z,3773.00
2023-05-09T07:36:45.504Z,3741.00
2023-05-09T07:37:45.271Z,3699.00
2023-05-09T07:38:45.291Z,3754.00
2023-05-09T07:39:45.331Z,3796.00
2023-05-09T07:40:45.341Z,3813.00
2023-05-09T07:41:46.421Z,3897.00
2023-05-09T07:42:45.365Z,3892.00
2023-05-09T07:43:45.430Z,3908.00
2023-05-09T07:44:45.379Z,3960.00
2023-05-09T07:45:45.448Z,3899.00
2023-05-09T07:46:45.470Z,3742.00
2023-05-09T07:47:45.543Z,3734.00
2023-05-09T07:48:45.440Z,3765.00
2023-05-09T07:49:45.529Z,3676.00
2023-05-09T07:50:45.571Z,3655.00
2023-05-09T07:51:45.989Z,3568.00
2023-05-09T07:52:45.682Z,3689.00
2023-05-09T07:53:45.710Z,3686.00
2023-05-09T07:54:46.024Z,3760.00
2023-05-09T07:55:45.882Z,3901.00
2023-05-09T07:56:45.829Z,3927.00
2023-05-09T07:57:45.819Z,3897.00
2023-05-09T07:58:45.885Z,3656.00
2023-05-09T07:59:45.852Z,3395.00
2023-05-09T08:00:45.918Z,3314.00
2023-05-09T08:01:45.973Z,3412.00
2023-05-09T08:02:46.015Z,3470.00
2023-05-09T08:03:46.113Z,3547.00
2023-05-09T08:04:46.021Z,3428.00
2023-05-09T08:05:46.068Z,3217.00
2023-05-09T08:06:46.107Z,3081.00
2023-05-09T08:07:46.455Z,3032.00
2023-05-09T08:08:46.156Z,3051.00
2023-05-09T08:09:46.171Z,3112.00
2023-05-09T08:10:46.169Z,3113.00
2023-05-09T08:11:46.561Z,2998.00
2023-05-09T08:12:46.213Z,3081.00
2023-05-09T08:13:46.495Z,3155.00
2023-05-09T08:14:46.255Z,2908.00
2023-05-09T08:15:46.331Z,2904.00
2023-05-09T08:16:46.311Z,2666.00
2023-05-09T08:17:46.442Z,2526.00
2023-05-09T08:18:46.428Z,2965.00
2023-05-09T08:19:46.440Z,2838.00
2023-05-09T08:20:46.502Z,2680.00
2023-05-09T08:21:46.511Z,2455.00
2023-05-09T08:22:46.535Z,2214.00
2023-05-09T08:23:46.605Z,2011.00
2023-05-09T08:24:46.640Z,1782.00
2023-05-09T08:25:47.032Z,1735.00
2023-05-09T08:26:46.725Z,1933.00
2023-05-09T08:27:46.926Z,1877.00
2023-05-09T08:28:46.766Z,2442.00
2023-05-09T08:29:46.819Z,2678.00
2023-05-09T08:30:46.817Z,2396.00
2023-05-09T08:31:46.912Z,2867.00
2023-05-09T08:32:47.067Z,2819.00
2023-05-09T08:33:46.943Z,2367.00
2023-05-09T08:34:46.970Z,2575.00
2023-05-09T08:35:47.067Z,2489.00
2023-05-09T08:36:47.097Z,2582.00
2023-05-09T08:37:47.128Z,2598.00
2023-05-09T08:38:47.300Z,2909.00
2023-05-09T08:39:47.185Z,3274.00
2023-05-09T08:40:47.233Z,3284.00
2023-05-09T08:41:47.256Z,2818.00
2023-05-09T08:42:47.409Z,2551.00
2023-05-09T08:43:47.589Z,2451.00
2023-05-09T08:44:47.435Z,2450.00
2023-05-09T08:45:47.483Z,2550.00
2023-05-09T08:46:47.541Z,2548.00
2023-05-09T08:47:47.609Z,2536.00
2023-05-09T08:48:47.597Z,2270.00
2023-05-09T08:49:47.659Z,2072.00
2023-05-09T08:50:47.698Z,2043.00
2023-05-09T08:51:47.771Z,1925.00
2023-05-09T08:52:47.815Z,1808.00
2023-05-09T08:53:48.016Z,1342.00
2023-05-09T08:54:48.003Z,1166.00
2023-05-09T08:55:47.890Z,1238.00
2023-05-09T08:56:48.026Z,1345.00
2023-05-09T08:57:47.941Z,1426.00
2023-05-09T08:58:48.009Z,1437.00
2023-05-09T08:59:48.090Z,1532.00
2023-05-09T09:00:48.017Z,1554.00
2023-05-09T09:01:48.102Z,1501.00
2023-05-09T09:02:48.103Z,1248.00
2023-05-09T09:03:48.090Z,1256.00
2023-05-09T09:04:48.209Z,1351.00
2023-05-09T09:05:48.241Z,1259.00
2023-05-09T09:06:48.519Z,1339.00
2023-05-09T09:07:48.515Z,1384.00
2023-05-09T09:08:48.512Z,1380.00
2023-05-09T09:09:48.359Z,1386.00
2023-05-09T09:10:48.536Z,1027.00
2023-05-09T09:11:48.432Z,851.00
2023-05-09T09:12:50.009Z,870.00
2023-05-09T09:13:48.523Z,821.00
2023-05-09T09:14:49.041Z,886.00
2023-05-09T09:15:49.094Z,739.00
2023-05-09T09:16:48.736Z,951.00
2023-05-09T09:17:48.728Z,1201.00
2023-05-09T09:18:48.682Z,853.00
2023-05-09T09:19:48.761Z,514.00
2023-05-09T09:20:49.011Z,458.00
2023-05-09T09:21:48.778Z,524.00
2023-05-09T09:22:48.818Z,533.00
2023-05-09T09:23:48.953Z,624.00
2023-05-09T09:24:48.901Z,873.00
2023-05-09T09:25:48.935Z,1004.00
2023-05-09T09:26:49.032Z,931.00
2023-05-09T09:27:48.944Z,869.00
2023-05-09T09:28:49.037Z,775.00
2023-05-09T09:29:49.028Z,855.00
2023-05-09T09:30:49.508Z,664.00
2023-05-09T09:31:49.196Z,796.00
2023-05-09T09:32:49.176Z,701.00
2023-05-09T09:33:49.162Z,993.00
2023-05-09T09:34:49.161Z,846.00
2023-05-09T09:35:49.213Z,656.00
2023-05-09T09:36:49.270Z,879.00
2023-05-09T09:37:49.240Z,747.00
2023-05-09T09:38:49.262Z,517.00
2023-05-09T09:39:49.344Z,427.00
2023-05-09T09:40:49.410Z,400.00
2023-05-09T09:41:49.439Z,400.00
2023-05-09T09:42:49.464Z,400.00
2023-05-09T09:43:49.532Z,400.00
2023-05-09T09:44:49.572Z,400.00
2023-05-09T09:45:49.620Z,400.00
2023-05-09T09:46:49.614Z,400.00
2023-05-09T09:47:49.741Z,423.00
2023-05-09T09:48:49.658Z,424.00
2023-05-09T09:49:49.717Z,588.00
2023-05-09T09:50:49.725Z,1057.00
2023-05-09T09:51:49.794Z,1320.00
2023-05-09T09:52:49.846Z,1540.00
2023-05-09T09:53:49.908Z,1087.00
2023-05-09T09:54:49.852Z,775.00
2023-05-09T09:55:49.910Z,798.00
2023-05-09T09:56:49.983Z,712.00
2023-05-09T09:57:49.995Z,520.00
2023-05-09T09:58:50.004Z,539.00
2023-05-09T09:59:50.011Z,500.00
2023-05-09T10:00:50.057Z,506.00
2023-05-09T10:01:50.253Z,612.00
2023-05-09T10:02:50.174Z,574.00
2023-05-09T10:03:50.304Z,400.00
2023-05-09T10:04:50.229Z,400.00
2023-05-09T10:05:50.262Z,587.00
2023-05-09T10:06:50.254Z,501.00
2023-05-09T10:07:50.299Z,401.00
2023-05-09T10:08:50.340Z,424.00
2023-05-09T10:09:50.341Z,500.00
2023-05-09T10:10:50.393Z,743.00
2023-05-09T10:11:50.425Z,674.00
2023-05-09T10:12:50.475Z,502.00
2023-05-09T10:13:50.439Z,400.00
2023-05-09T10:14:50.477Z,400.00
2023-05-09T10:15:53.910Z,400.00
2023-05-09T10:16:50.584Z,400.00
2023-05-09T10:17:50.584Z,400.00
2023-05-09T10:18:50.589Z,400.00
2023-05-09T10:19:50.552Z,400.00
2023-05-09T10:20:50.486Z,400.00
2023-05-09T10:21:50.493Z,400.00
2023-05-09T10:22:50.447Z,400.00
2023-05-09T10:23:50.468Z,400.00
2023-05-09T10:24:50.453Z,400.00
2023-05-09T10:25:50.496Z,522.00
2023-05-09T10:26:50.427Z,579.00
2023-05-09T10:27:50.687Z,607.00
2023-05-09T10:28:50.438Z,823.00
2023-05-09T10:29:50.396Z,832.00
2023-05-09T10:30:50.418Z,1386.00
2023-05-09T10:31:50.464Z,1434.00
2023-05-09T10:32:50.524Z,1599.00
2023-05-09T10:33:50.424Z,1501.00
2023-05-09T10:34:50.401Z,942.00
2023-05-09T10:35:50.471Z,769.00
2023-05-09T10:36:50.387Z,806.00
2023-05-09T10:37:50.379Z,1030.00
2023-05-09T10:38:50.360Z,1128.00
2023-05-09T10:39:50.408Z,763.00
2023-05-09T10:40:50.359Z,634.00
2023-05-09T10:41:50.329Z,535.00
2023-05-09T10:42:50.312Z,467.00
2023-05-09T10:43:50.322Z,400.00
2023-05-09T10:44:50.337Z,400.00
2023-05-09T10:45:50.336Z,400.00
2023-05-09T10:46:50.380Z,400.00
2023-05-09T10:47:50.326Z,400.00
2023-05-09T10:48:50.283Z,429.00
2023-05-09T10:49:50.292Z,400.00
2023-05-09T10:50:50.294Z,505.00
2023-05-09T10:51:50.373Z,534.00
2023-05-09T10:52:50.309Z,400.00
2023-05-09T10:53:50.350Z,500.00
2023-05-09T10:54:50.249Z,875.00
2023-05-09T10:55:50.295Z,1622.00
2023-05-09T10:56:50.228Z,1965.00
2023-05-09T10:57:50.246Z,1747.00
2023-05-09T10:58:50.246Z,1460.00
2023-05-09T10:59:50.220Z,1329.00
2023-05-09T11:00:50.246Z,1486.00
2023-05-09T11:01:50.295Z,1243.00
2023-05-09T11:02:50.407Z,1442.00
2023-05-09T11:03:50.429Z,1719.00
2023-05-09T11:04:50.353Z,1843.00
2023-05-09T11:05:50.357Z,1650.00
2023-05-09T11:06:50.413Z,1805.00
2023-05-09T11:07:50.534Z,1795.00
2023-05-09T11:08:50.499Z,1347.00
2023-05-09T11:09:50.531Z,1664.00
2023-05-09T11:10:50.532Z,1739.00
2023-05-09T11:11:50.532Z,1464.00
2023-05-09T11:12:50.604Z,1571.00
2023-05-09T11:13:50.601Z,1411.00
2023-05-09T11:14:50.628Z,1430.00
2023-05-09T11:15:50.698Z,1440.00
2023-05-09T11:16:50.958Z,1460.00
2023-05-09T11:17:50.750Z,1302.00
2023-05-09T11:18:50.768Z,1369.00
2023-05-09T11:19:50.769Z,1196.00
2023-05-09T11:20:50.792Z,1440.00
2023-05-09T11:21:50.842Z,1377.00
2023-05-09T11:22:50.887Z,873.00
2023-05-09T11:23:52.381Z,650.00
2023-05-09T11:24:50.906Z,594.00
2023-05-09T11:25:50.944Z,884.00
2023-05-09T11:26:50.912Z,892.00
2023-05-09T11:27:50.899Z,1017.00
2023-05-09T11:28:50.895Z,1816.00
2023-05-09T11:29:50.872Z,1975.00
2023-05-09T11:30:50.832Z,1122.00
2023-05-09T11:31:50.872Z,1312.00
2023-05-09T11:32:50.864Z,1116.00
2023-05-09T11:33:50.853Z,1002.00
2023-05-09T11:34:50.849Z,743.00
2023-05-09T11:35:50.835Z,1814.00
2023-05-09T11:36:50.847Z,1103.00
2023-05-09T11:37:50.819Z,660.00
2023-05-09T11:38:50.838Z,711.00
2023-05-09T11:39:50.883Z,725.00
2023-05-09T11:40:50.808Z,1113.00
2023-05-09T11:41:50.773Z,922.00
2023-05-09T11:42:50.830Z,580.00
2023-05-09T11:43:50.774Z,400.00
2023-05-09T11:44:50.753Z,400.00
2023-05-09T11:45:50.770Z,400.00
2023-05-09T11:46:50.746Z,400.00
2023-05-09T11:47:50.786Z,400.00
2023-05-09T11:48:50.746Z,586.00
2023-05-09T11:49:50.711Z,609.00
2023-05-09T11:50:50.770Z,535.00
2023-05-09T11:51:50.721Z,485.00
2023-05-09T11:52:50.764Z,440.00
2023-05-09T11:53:50.718Z,500.00
2023-05-09T11:54:50.707Z,623.00
2023-05-09T11:55:50.862Z,780.00
2023-05-09T11:56:50.692Z,884.00
2023-05-09T11:57:50.686Z,720.00
2023-05-09T11:58:50.714Z,516.00
2023-05-09T11:59:50.657Z,586.00
2023-05-09T12:00:50.657Z,432.00
2023-05-09T12:01:50.673Z,400.00
2023-05-09T12:02:50.729Z,400.00
2023-05-09T12:03:50.720Z,414.00
2023-05-09T12:04:50.617Z,511.00
2023-05-09T12:05:50.699Z,544.00
2023-05-09T12:06:50.628Z,571.00
2023-05-09T12:07:50.602Z,549.00
2023-05-09T12:08:50.629Z,531.00
2023-05-09T12:09:50.625Z,545.00
2023-05-09T12:10:50.622Z,503.00